createdAt,value
2022-09-17T00:02:21.904Z,8.80
2022-09-17T00:07:22.757Z,2.20
2022-09-17T00:12:23.417Z,4.00
2022-09-17T00:17:24.284Z,2.50
2022-09-17T00:22:25.100Z,2.70
2022-09-17T00:27:25.780Z,2.40
2022-09-17T00:32:26.487Z,2.90
2022-09-17T00:37:27.228Z,2.70
2022-09-17T00:42:28.057Z,2.80
2022-09-17T00:47:28.721Z,2.60
2022-09-17T00:52:29.518Z,2.90
2022-09-17T00:57:30.319Z,2.80
2022-09-17T01:02:31.146Z,2.90
2022-09-17T01:07:31.836Z,2.70
2022-09-17T01:12:32.669Z,2.70
2022-09-17T01:17:33.415Z,2.60
2022-09-17T01:22:34.104Z,2.60
2022-09-17T01:27:34.944Z,2.80
2022-09-17T01:32:35.585Z,3.10
2022-09-17T01:37:36.310Z,2.50
2022-09-17T01:42:37.044Z,2.60
2022-09-17T01:47:37.854Z,2.90
2022-09-17T01:52:38.523Z,2.90
2022-09-17T01:57:39.259Z,2.90
2022-09-17T02:02:39.986Z,2.90
2022-09-17T02:07:40.798Z,3.30
2022-09-17T02:12:41.480Z,3.10
2022-09-17T02:17:42.207Z,3.30
2022-09-17T02:22:42.920Z,3.20
2022-09-17T02:27:43.768Z,3.20
2022-09-17T02:32:44.501Z,3.40
2022-09-17T02:37:45.165Z,4.00
2022-09-17T02:42:45.984Z,4.50
2022-09-17T02:47:46.697Z,4.20
2022-09-17T02:52:47.398Z,4.10
2022-09-17T02:57:48.223Z,4.20
2022-09-17T03:02:48.910Z,4.10
2022-09-17T03:07:49.621Z,4.40
2022-09-17T03:12:50.516Z,4.20
2022-09-17T03:17:53.403Z,4.50
2022-09-17T03:22:51.799Z,4.00
2022-09-17T03:27:59.620Z,4.20
2022-09-17T03:32:53.248Z,4.10
2022-09-17T03:37:53.974Z,3.40
2022-09-17T03:42:54.544Z,3.40
2022-09-17T03:47:55.378Z,3.10
2022-09-17T03:52:56.051Z,3.10
2022-09-17T03:57:56.748Z,3.30
2022-09-17T04:02:57.516Z,3.10
2022-09-17T04:07:58.299Z,3.10
2022-09-17T04:12:58.948Z,2.90
2022-09-17T04:17:59.689Z,2.90
2022-09-17T04:23:00.416Z,3.20
2022-09-17T04:28:01.207Z,3.10
2022-09-17T04:33:01.855Z,3.30
2022-09-17T04:38:02.522Z,3.40
2022-09-17T04:43:03.253Z,3.40
2022-09-17T04:48:04.020Z,3.00
2022-09-17T04:53:04.613Z,3.20
2022-09-17T04:58:05.303Z,3.30
2022-09-17T05:03:05.987Z,2.90
2022-09-17T05:08:06.737Z,2.50
2022-09-17T05:13:07.341Z,2.80
2022-09-17T05:18:08.007Z,3.10
2022-09-17T05:23:08.643Z,2.80
2022-09-17T05:28:09.492Z,3.00
2022-09-17T05:33:10.081Z,2.70
2022-09-17T05:38:10.738Z,3.10
2022-09-17T05:43:11.491Z,3.00
2022-09-17T05:48:12.134Z,2.70
2022-09-17T05:53:12.815Z,3.00
2022-09-17T05:58:13.571Z,3.00
2022-09-17T06:03:14.193Z,3.10
2022-09-17T06:08:14.887Z,3.20
2022-09-17T06:13:15.511Z,3.40
2022-09-17T06:18:16.284Z,3.70
2022-09-17T06:23:16.919Z,3.70
2022-09-17T06:28:17.579Z,3.60
2022-09-17T06:33:18.230Z,4.00
2022-09-17T06:38:18.990Z,4.10
2022-09-17T06:43:19.574Z,4.20
2022-09-17T06:48:20.231Z,4.00
2022-09-17T06:53:20.887Z,4.40
2022-09-17T06:58:21.650Z,5.10
2022-09-17T07:03:23.431Z,4.50
2022-09-17T07:08:23.127Z,3.90
2022-09-17T07:13:23.833Z,4.90
2022-09-17T07:18:24.576Z,5.20
2022-09-17T07:23:25.170Z,4.70
2022-09-17T07:28:25.830Z,4.70
2022-09-17T07:33:26.563Z,4.00
2022-09-17T07:38:27.328Z,4.50
2022-09-17T07:43:27.971Z,4.20
2022-09-17T07:48:28.622Z,3.90
2022-09-17T07:53:29.472Z,3.80
2022-09-17T07:58:30.171Z,3.90
2022-09-17T08:03:30.846Z,3.80
2022-09-17T08:08:31.591Z,4.00
2022-09-17T08:13:32.321Z,3.50
2022-09-17T08:18:33.102Z,3.40
2022-09-17T08:23:33.977Z,3.20
2022-09-17T08:28:35.054Z,3.10
2022-09-17T08:33:35.222Z,3.50
2022-09-17T08:38:38.289Z,3.30
2022-09-17T08:43:36.642Z,3.10
2022-09-17T08:48:37.428Z,2.70
2022-09-17T08:53:38.010Z,2.80
2022-09-17T08:58:38.687Z,3.20
2022-09-17T09:03:39.354Z,3.10
2022-09-17T09:08:40.182Z,3.00
2022-09-17T09:13:40.996Z,3.10
2022-09-17T09:18:41.623Z,3.40
2022-09-17T09:23:42.374Z,3.20
2022-09-17T09:28:50.092Z,2.80
2022-09-17T09:33:47.744Z,2.90
2022-09-17T09:38:44.368Z,3.20
2022-09-17T09:44:04.024Z,2.80
2022-09-17T09:48:46.657Z,2.90
2022-09-17T09:53:46.371Z,2.90
2022-09-17T09:58:47.143Z,2.90
2022-09-17T10:03:47.921Z,3.00
2022-09-17T10:08:48.620Z,3.40
2022-09-17T10:13:49.497Z,2.80
2022-09-17T10:18:50.233Z,2.70
2022-09-17T10:23:50.958Z,2.70
2022-09-17T10:28:51.793Z,2.90
2022-09-17T10:33:52.453Z,2.40
2022-09-17T10:38:53.148Z,2.90
2022-09-17T10:43:53.937Z,3.00
2022-09-17T10:48:54.737Z,2.80
2022-09-17T10:53:55.380Z,3.00
2022-09-17T10:58:56.161Z,2.70
2022-09-17T11:03:56.900Z,2.90
2022-09-17T11:08:57.554Z,3.30
2022-09-17T11:13:58.441Z,2.50
2022-09-17T11:18:59.122Z,2.80
2022-09-17T11:23:59.800Z,2.20
2022-09-17T11:29:00.542Z,9.00
2022-09-17T11:34:01.383Z,2.40
2022-09-17T11:39:01.984Z,2.20
2022-09-17T11:44:02.662Z,2.20
2022-09-17T11:49:03.432Z,2.30
2022-09-17T11:54:04.187Z,2.30
2022-09-17T11:59:04.897Z,2.30
2022-09-17T12:04:05.589Z,2.40
2022-09-17T12:09:06.358Z,2.50
2022-09-17T12:14:07.019Z,1.90
2022-09-17T12:19:07.734Z,3.00
2022-09-17T12:24:08.482Z,2.30
2022-09-17T12:29:09.124Z,2.00
2022-09-17T12:34:09.957Z,1.60
2022-09-17T12:39:10.795Z,1.80
2022-09-17T12:44:11.544Z,1.50
2022-09-17T12:49:12.308Z,1.70
2022-09-17T12:54:13.062Z,1.60
2022-09-17T12:59:13.818Z,2.00
2022-09-17T13:04:14.513Z,2.10
2022-09-17T13:09:15.246Z,1.90
2022-09-17T13:14:15.994Z,1.90
2022-09-17T13:19:17.393Z,1.90
2022-09-17T13:24:17.317Z,1.70
2022-09-17T13:29:18.022Z,2.20
2022-09-17T13:34:18.781Z,1.90
2022-09-17T13:39:19.485Z,1.90
2022-09-17T13:44:20.244Z,2.40
2022-09-17T13:49:21.041Z,2.30
2022-09-17T13:54:21.731Z,1.90
2022-09-17T13:59:22.458Z,1.50
2022-09-17T14:04:23.206Z,2.50
2022-09-17T14:09:23.866Z,1.50
2022-09-17T14:14:24.673Z,2.20
2022-09-17T14:19:25.433Z,2.00
2022-09-17T14:24:26.174Z,1.90
2022-09-17T14:29:26.935Z,2.10
2022-09-17T14:34:27.743Z,1.80
2022-09-17T14:39:28.504Z,1.80
2022-09-17T14:44:29.317Z,1.70
2022-09-17T14:49:30.055Z,1.30
2022-09-17T14:54:35.751Z,1.30
2022-09-17T14:59:32.384Z,1.40
2022-09-17T15:04:32.005Z,1.00
2022-09-17T15:09:32.691Z,0.80
2022-09-17T15:14:33.417Z,0.70
2022-09-17T15:19:34.160Z,0.60
2022-09-17T15:24:34.823Z,0.90
2022-09-17T15:29:35.573Z,0.90
2022-09-17T15:34:36.294Z,0.70
2022-09-17T15:39:37.062Z,1.40
2022-09-17T15:44:37.724Z,1.00
2022-09-17T15:49:38.453Z,0.70
2022-09-17T15:54:39.146Z,1.00
2022-09-17T15:59:39.944Z,0.90
2022-09-17T16:04:40.605Z,1.00
2022-09-17T16:09:41.272Z,1.00
2022-09-17T16:14:49.045Z,1.20
2022-09-17T16:19:42.620Z,1.10
2022-09-17T16:24:43.305Z,1.20
2022-09-17T16:29:43.972Z,1.20
2022-09-17T16:34:44.742Z,1.20
2022-09-17T16:39:45.501Z,0.90
2022-09-17T16:44:46.215Z,1.30
2022-09-17T16:49:46.963Z,1.00
2022-09-17T16:54:47.746Z,1.10
2022-09-17T16:59:48.403Z,1.20
2022-09-17T17:04:49.102Z,1.30
2022-09-17T17:09:49.824Z,1.20
2022-09-17T17:14:50.664Z,1.30
2022-09-17T17:19:51.302Z,1.60
2022-09-17T17:24:52.107Z,1.40
2022-09-17T17:29:52.910Z,1.40
2022-09-17T17:34:53.512Z,1.50
2022-09-17T17:39:54.287Z,1.40
2022-09-17T17:44:54.944Z,1.20
2022-09-17T17:49:55.808Z,1.60
2022-09-17T17:54:57.491Z,1.60
2022-09-17T17:59:57.289Z,1.70
2022-09-17T18:05:03.382Z,2.20
2022-09-17T18:10:00.627Z,1.40
2022-09-17T18:14:59.419Z,1.50
2022-09-17T18:20:00.381Z,1.60
2022-09-17T18:25:01.739Z,1.70
2022-09-17T18:30:01.476Z,1.50
2022-09-17T18:35:02.282Z,1.80
2022-09-17T18:40:03.014Z,1.40
2022-09-17T18:45:03.723Z,1.40
2022-09-17T18:50:04.544Z,1.40
2022-09-17T18:55:05.207Z,1.60
2022-09-17T19:00:05.950Z,1.70
2022-09-17T19:05:06.667Z,1.70
2022-09-17T19:10:07.566Z,1.40
2022-09-17T19:15:08.230Z,1.50
2022-09-17T19:20:08.965Z,1.90
2022-09-17T19:25:09.827Z,2.40
2022-09-17T19:30:10.526Z,1.80
2022-09-17T19:35:11.290Z,1.80
2022-09-17T19:40:12.053Z,1.70
2022-09-17T19:45:12.847Z,1.80
2022-09-17T19:50:13.490Z,1.60
2022-09-17T19:55:14.241Z,1.50
2022-09-17T20:00:14.961Z,2.20
2022-09-17T20:05:15.796Z,1.90
2022-09-17T20:10:16.487Z,2.10
2022-09-17T20:15:17.241Z,2.00
2022-09-17T20:20:18.589Z,1.90
2022-09-17T20:25:18.921Z,1.80
2022-09-17T20:30:19.617Z,2.10
2022-09-17T20:35:22.013Z,2.00
2022-09-17T20:40:22.494Z,1.80
2022-09-17T20:45:21.700Z,1.90
2022-09-17T20:50:22.795Z,2.10
2022-09-17T20:55:23.254Z,2.10
2022-09-17T21:00:23.550Z,2.40
2022-09-17T21:05:24.348Z,1.90
2022-09-17T21:10:25.360Z,2.30
2022-09-17T21:15:26.077Z,2.30
2022-09-17T21:20:26.915Z,2.40
2022-09-17T21:25:27.642Z,2.30
2022-09-17T21:30:28.403Z,2.50
2022-09-17T21:35:29.304Z,2.50
2022-09-17T21:40:30.251Z,2.30
2022-09-17T21:45:30.522Z,2.70
2022-09-17T21:50:31.312Z,2.80
2022-09-17T21:55:32.131Z,3.80
2022-09-17T22:00:32.931Z,2.70
2022-09-17T22:05:33.801Z,2.70
2022-09-17T22:10:34.590Z,2.60
2022-09-17T22:15:35.534Z,2.60
2022-09-17T22:20:42.705Z,2.40
2022-09-17T22:25:36.483Z,2.60
2022-09-17T22:30:37.185Z,2.40
2022-09-17T22:35:38.011Z,2.20
2022-09-17T22:40:38.788Z,2.50
2022-09-17T22:45:39.560Z,2.60
2022-09-17T22:50:40.400Z,3.00
2022-09-17T22:55:41.032Z,2.30
2022-09-17T23:00:41.777Z,2.40
2022-09-17T23:05:42.592Z,2.60
2022-09-17T23:10:43.371Z,2.40
2022-09-17T23:15:44.100Z,2.40
2022-09-17T23:20:44.823Z,2.30
2022-09-17T23:25:45.609Z,2.40
2022-09-17T23:30:46.455Z,2.50
2022-09-17T23:35:47.261Z,2.40
2022-09-17T23:40:48.105Z,2.50
2022-09-17T23:45:49.021Z,2.30
2022-09-17T23:50:49.792Z,2.50
2022-09-17T23:55:50.529Z,2.40
